メインページ
METAR-TAF:

METAR-TAF

空港 :

ウィスラー, ブリティッシュコロンビア州, カナダ

緯度: 50-08N, 経度: 122-57W, 海抜: 658m

現時点の気象観測

当レポートは3時間39分前の01:00(UTC)に作成
無風
気温 1°C
湿度 93%
気圧 1027 hPa
視程: 24.1km
晴天

METAR: CWAE 170100Z 00000KT 15SM SKC 01/00 A3032 RMK LAST OBS/NEXT 171500UTC SLP287

時間: 20:39 (04:39 UTC)


TAF: 見つかりません

4,000以上の空港の気象観測と天気予報(METAR報とTAF報)

利用可能な観測所は地図上に黄色い丸と赤い丸で示す。

丸の上にカーソルを重ねると観測所名を参照できる。

次にクリックすると気象観測と天気予報を参照できる。

マップの切り替え:黒色「×」印の緑ボタンをクリックして拡大、「-」印の緑ボタンをクリックして縮小、緑色の三角印をクリックして隣りの地図に切り替え


METAR-TAF: